Pinkstaff, Illinois
Current Conditions -  °F | °C
As of 3:53 AM on Friday 19 Dec 2014 (Local Time) from KLWV Reporting Station
Haze Haze  
Wind Chill: 21°   Ceiling: Unl
Heat Index: 26°   Visibility: 6mi
Dew Point: 23°   Wind: 5mph
Humidity: 88%   Direction: 20°NNE
Pressure: 30.3"   Gusts: NA
Location:  38.7501°N, 87.6141°W
Report Text: KLWV 190953Z AUTO 02004KT 6SM BR CLR M03/M05 A3030 RMK AO2 SLP265 T10331050
Loading
Personal Weather Stations






























Interactive Weather Map New forecast layout! Learn more

10-Day Weather Forecast

Advertisements
Track Severe Weather on mobile